»·PEaware :: N422LM KBFL-KSBP

N422LM :: KBFL-KSBP

FLIGHT INFORMATION

Flight Status: Arrived
Operator: Privately registered:
United States
More flights under this callsign
Pilot: Larry M. (11564)
Aircraft: CESSNA 172 SKYHAWK
(C172)
More flights by this aircraft type
Origin: KBFL Meadows
United States
Destination: KSBP San Luis Co Regl
United States
More flights between these airports :: More routes between these airports
Route: FLW
File this flight plan on PilotEdge
Remarks:
Altitude:
(Current/Filed)
6,500ft
Speed:
(Current/Filed)
115kts
Departed: 09-Oct-17 07:42 AM
Arrived: 09-Oct-17 08:29 AM
Distance/Time
Traveled:
78nm/0:47
Distance/Time
To Go:
Arrived

Flight Plot

Page will automatically refresh every two minutes.


Map Options




Map Legend


Flown Route
Filed Route
Departure Airport
Arrival Airport
Navaid (VOR, NDB)
Fix

Horizontal Profiles

Position Reports

Time Latitude Longitude Heading Altitude Ground
Speed
09-Oct-17 07:24 35.429062 -119.045821 143 510ft 0kts
09-Oct-17 07:25 35.429062 -119.045821 143 510ft 0kts
09-Oct-17 07:26 35.429062 -119.045821 143 510ft 0kts
09-Oct-17 07:27 35.429062 -119.045821 143 510ft 0kts
09-Oct-17 07:28 35.429062 -119.045821 143 510ft 0kts
09-Oct-17 07:29 35.429062 -119.045821 143 510ft 0kts
09-Oct-17 07:30 35.429062 -119.045821 143 510ft 0kts
09-Oct-17 07:31 35.429062 -119.045821 143 510ft 0kts
09-Oct-17 07:32 35.429062 -119.045821 143 510ft 0kts
09-Oct-17 07:33 35.429061 -119.045821 142 510ft 0kts
09-Oct-17 07:34 35.429061 -119.045821 142 510ft 0kts
09-Oct-17 07:35 35.429061 -119.045821 142 510ft 0kts
09-Oct-17 07:36 35.429061 -119.045821 142 510ft 0kts
09-Oct-17 07:37 35.429061 -119.045821 142 510ft 0kts
09-Oct-17 07:38 35.429061 -119.045821 142 510ft 0kts
09-Oct-17 07:39 35.429061 -119.045821 142 510ft 0kts
09-Oct-17 07:40 35.429061 -119.045821 142 510ft 0kts
09-Oct-17 07:41 35.429061 -119.045821 142 510ft 0kts
09-Oct-17 07:42 35.428764 -119.046781 246 510ft 13kts
09-Oct-17 07:43 35.426564 -119.045157 132 510ft 4kts
09-Oct-17 07:44 35.425702 -119.044758 227 510ft 0kts
09-Oct-17 07:45 35.425699 -119.044762 226 510ft 1kts
09-Oct-17 07:46 35.436622 -119.060268 311 624ft 112kts
09-Oct-17 07:47 35.458407 -119.087365 306 1258ft 111kts
09-Oct-17 07:48 35.444898 -119.116118 224 2048ft 103kts
09-Oct-17 07:49 35.424662 -119.140609 224 2840ft 101kts
09-Oct-17 07:50 35.404694 -119.164470 224 3634ft 99kts
09-Oct-17 07:51 35.385020 -119.187679 224 4427ft 97kts
09-Oct-17 07:52 35.369642 -119.213813 241 5215ft 93kts
09-Oct-17 07:53 35.356750 -119.242140 243 5867ft 101kts
09-Oct-17 07:54 35.343093 -119.273825 244 6360ft 109kts
09-Oct-17 07:55 35.328231 -119.308991 244 6523ft 123kts
09-Oct-17 07:56 35.313219 -119.344673 245 6518ft 114kts
09-Oct-17 07:57 35.298710 -119.379183 245 6519ft 114kts
09-Oct-17 07:58 35.284184 -119.413692 245 6519ft 114kts
09-Oct-17 07:59 35.269670 -119.448130 245 6519ft 114kts
09-Oct-17 08:00 35.255160 -119.482519 245 6519ft 114kts
09-Oct-17 08:01 35.240613 -119.516969 245 6519ft 114kts
09-Oct-17 08:02 35.225993 -119.551561 245 6521ft 116kts
09-Oct-17 08:03 35.211019 -119.586915 245 6519ft 117kts
09-Oct-17 08:04 35.195919 -119.622541 245 6519ft 117kts
09-Oct-17 08:05 35.180976 -119.657772 244 6519ft 117kts
09-Oct-17 08:06 35.165874 -119.693345 244 6519ft 117kts
09-Oct-17 08:07 35.150822 -119.728773 244 6519ft 117kts
09-Oct-17 08:08 35.135776 -119.764135 244 6535ft 116kts
09-Oct-17 08:09 35.120711 -119.799500 244 6536ft 117kts
09-Oct-17 08:10 35.105575 -119.835006 244 6535ft 118kts
09-Oct-17 08:11 35.094959 -119.871409 280 6534ft 114kts
09-Oct-17 08:12 35.101288 -119.909515 284 6533ft 114kts
09-Oct-17 08:13 35.108239 -119.947572 284 6532ft 114kts
09-Oct-17 08:14 35.115313 -119.985507 284 6530ft 114kts
09-Oct-17 08:15 35.122428 -120.023480 285 6527ft 114kts
09-Oct-17 08:16 35.129573 -120.061445 285 6525ft 114kts
09-Oct-17 08:17 35.136834 -120.099460 285 6523ft 114kts
09-Oct-17 08:18 35.143952 -120.137442 285 6522ft 114kts
09-Oct-17 08:19 35.151023 -120.175343 285 6521ft 114kts
09-Oct-17 08:20 35.158073 -120.213136 285 6198ft 114kts
09-Oct-17 08:21 35.165112 -120.251012 284 5702ft 114kts
09-Oct-17 08:22 35.172131 -120.288907 284 5206ft 114kts
09-Oct-17 08:23 35.179180 -120.326993 284 4708ft 115kts
09-Oct-17 08:24 35.186225 -120.365124 284 4210ft 115kts
09-Oct-17 08:25 35.193059 -120.402186 284 3606ft 109kts
09-Oct-17 08:26 35.199745 -120.438473 284 2905ft 109kts
09-Oct-17 08:27 35.206064 -120.472981 284 2483ft 93kts
09-Oct-17 08:28 35.202834 -120.500522 222 2582ft 81kts
09-Oct-17 08:29 35.189218 -120.529901 266 1787ft 123kts
09-Oct-17 08:30 35.198360 -120.566052 310 872ft 99kts
09-Oct-17 08:31 35.206958 -120.598539 278 971ft 107kts
09-Oct-17 08:32 35.224245 -120.623863 339 792ft 71kts
09-Oct-17 08:33 35.235056 -120.636759 347 215ft 20kts
09-Oct-17 08:34 35.235771 -120.635226 328 215ft 8kts
09-Oct-17 08:35 35.235775 -120.635581 34 215ft 0kts
09-Oct-17 08:36 35.235775 -120.635581 34 215ft 0kts
09-Oct-17 08:37 35.235775 -120.635581 34 215ft 0kts
09-Oct-17 08:38 35.235775 -120.635581 34 215ft 0kts
09-Oct-17 08:40 35.235775 -120.635581 34 215ft 0kts
09-Oct-17 08:41 35.235775 -120.635581 34 215ft 0kts
09-Oct-17 08:42 35.235775 -120.635581 34 215ft 0kts
09-Oct-17 08:43 35.235775 -120.635581 34 215ft 0kts
09-Oct-17 08:44 35.235775 -120.635581 34 215ft 0kts
09-Oct-17 08:45 35.235775 -120.635581 34 215ft 0kts
09-Oct-17 08:46 35.235775 -120.635581 34 215ft 0kts
09-Oct-17 08:47 35.235775 -120.635581 34 215ft 0kts
09-Oct-17 08:48 35.235775 -120.635581 34 215ft 0kts
09-Oct-17 08:49 35.235775 -120.635581 34 215ft 0kts

Navigation Log

Ident Type
1. KBFL Airport
2. FLW Navaid
3. KSBP Airport